createdAt,value
2018-10-11T00:00:40.113Z,24.03
2018-10-11T00:03:14.396Z,23.13
2018-10-11T00:05:48.892Z,25.10
2018-10-11T00:08:23.344Z,24.67
2018-10-11T00:10:57.560Z,22.93
2018-10-11T00:13:31.529Z,22.90
2018-10-11T00:16:05.503Z,23.70
2018-10-11T00:18:39.600Z,24.10
2018-10-11T00:21:13.725Z,23.97
2018-10-11T00:23:47.819Z,22.97
2018-10-11T00:26:22.122Z,23.43
2018-10-11T00:28:56.351Z,23.73
2018-10-11T00:31:30.331Z,23.13
2018-10-11T00:34:04.857Z,22.13
2018-10-11T00:36:39.561Z,22.73
2018-10-11T00:39:13.577Z,22.20
2018-10-11T00:41:47.779Z,23.43
2018-10-11T00:44:22.190Z,22.00
2018-10-11T00:46:56.120Z,23.50
2018-10-11T00:49:30.602Z,22.30
2018-10-11T00:52:04.587Z,23.07
2018-10-11T00:54:38.737Z,23.87
2018-10-11T00:57:13.009Z,23.97
2018-10-11T00:59:47.540Z,23.50
2018-10-11T01:02:21.914Z,22.70
2018-10-11T01:04:56.261Z,22.33
2018-10-11T01:07:30.349Z,22.80
2018-10-11T01:10:04.873Z,22.50
2018-10-11T01:12:38.842Z,22.87
2018-10-11T01:15:13.129Z,23.27
2018-10-11T01:17:47.237Z,23.47
2018-10-11T01:20:21.987Z,23.27
2018-10-11T01:22:56.097Z,24.33
2018-10-11T01:25:31.009Z,25.47
2018-10-11T01:28:05.322Z,23.63
2018-10-11T01:30:43.755Z,23.93
2018-10-11T01:33:18.421Z,23.97
2018-10-11T01:35:53.611Z,23.10
2018-10-11T01:38:27.773Z,23.13
2018-10-11T01:41:02.447Z,23.60
2018-10-11T01:43:37.636Z,24.27
2018-10-11T01:46:11.961Z,22.43
2018-10-11T01:48:46.346Z,21.83
2018-10-11T01:51:20.669Z,23.27
2018-10-11T01:53:55.020Z,22.77
2018-10-11T01:56:29.714Z,22.57
2018-10-11T01:59:04.047Z,21.27
2018-10-11T02:01:38.234Z,22.27
2018-10-11T02:04:13.319Z,22.00
2018-10-11T02:06:47.460Z,21.80
2018-10-11T02:09:21.835Z,21.77
2018-10-11T02:11:55.954Z,21.80
2018-10-11T02:14:30.596Z,22.53
2018-10-11T02:17:04.725Z,22.33
2018-10-11T02:19:39.004Z,22.67
2018-10-11T02:22:13.137Z,21.10
2018-10-11T02:24:47.311Z,21.73
2018-10-11T02:27:22.093Z,21.70
2018-10-11T02:29:56.881Z,22.90
2018-10-11T02:32:30.979Z,21.83
2018-10-11T02:35:05.116Z,22.60
2018-10-11T02:37:39.429Z,22.03
2018-10-11T02:40:13.774Z,22.80
2018-10-11T02:42:47.730Z,22.57
2018-10-11T02:45:21.981Z,23.27
2018-10-11T02:47:56.420Z,23.17
2018-10-11T02:50:30.355Z,22.60
2018-10-11T02:53:04.642Z,21.07
2018-10-11T02:55:39.200Z,23.30
2018-10-11T02:58:24.701Z,23.53
2018-10-11T03:01:00.124Z,23.57
2018-10-11T03:03:34.560Z,22.87
2018-10-11T03:06:08.555Z,24.23
2018-10-11T03:08:43.329Z,22.83
2018-10-11T03:11:17.512Z,23.37
2018-10-11T03:13:52.421Z,23.87
2018-10-11T03:16:26.630Z,23.60
2018-10-11T03:19:00.697Z,23.37
2018-10-11T03:21:35.448Z,22.33
2018-10-11T03:24:09.622Z,22.40
2018-10-11T03:26:43.949Z,22.57
2018-10-11T03:29:18.185Z,22.73
2018-10-11T03:31:52.908Z,22.20
2018-10-11T03:34:28.497Z,23.67
2018-10-11T03:37:02.385Z,24.13
2018-10-11T03:39:36.555Z,23.73
2018-10-11T03:42:10.485Z,24.73
2018-10-11T03:44:44.496Z,24.63
2018-10-11T03:47:19.691Z,23.73
2018-10-11T03:49:53.826Z,25.07
2018-10-11T03:52:28.283Z,25.10
2018-10-11T03:55:02.980Z,25.67
2018-10-11T03:57:37.065Z,24.60
2018-10-11T04:00:10.992Z,25.20
2018-10-11T04:02:45.342Z,24.77
2018-10-11T04:05:19.560Z,24.93
2018-10-11T04:07:53.771Z,26.37
2018-10-11T04:10:28.733Z,27.33
2018-10-11T04:13:02.919Z,26.00
2018-10-11T04:15:37.250Z,25.77
2018-10-11T04:18:11.709Z,25.60
2018-10-11T04:20:46.297Z,25.87
2018-10-11T04:23:25.972Z,26.47
2018-10-11T04:26:00.534Z,25.83
2018-10-11T04:28:34.707Z,27.83
2018-10-11T04:31:10.291Z,28.03
2018-10-11T04:33:44.209Z,27.20
2018-10-11T04:36:18.541Z,29.03
2018-10-11T04:38:52.782Z,27.73
2018-10-11T04:41:26.983Z,28.83
2018-10-11T04:44:00.982Z,27.43
2018-10-11T04:46:35.425Z,27.70
2018-10-11T04:49:09.875Z,27.17
2018-10-11T04:51:45.431Z,27.73
2018-10-11T04:54:20.181Z,27.17
2018-10-11T04:56:54.094Z,28.23
2018-10-11T04:59:28.452Z,27.50
2018-10-11T05:02:02.789Z,26.77
2018-10-11T05:04:36.879Z,29.30
2018-10-11T05:07:11.196Z,27.00
2018-10-11T05:09:45.993Z,27.17
2018-10-11T05:12:20.124Z,26.27
2018-10-11T05:14:54.698Z,27.47
2018-10-11T05:17:28.881Z,26.60
2018-10-11T05:20:02.880Z,26.60
2018-10-11T05:22:37.115Z,25.97
2018-10-11T05:25:11.264Z,26.53
2018-10-11T05:27:46.505Z,26.40
2018-10-11T05:30:20.532Z,28.67
2018-10-11T05:32:54.683Z,27.80
2018-10-11T05:35:29.359Z,26.57
2018-10-11T05:38:03.744Z,27.10
2018-10-11T05:40:38.092Z,28.63
2018-10-11T05:43:12.875Z,26.23
2018-10-11T05:45:53.513Z,27.17
2018-10-11T05:48:29.474Z,26.33
2018-10-11T05:51:04.024Z,28.37
2018-10-11T05:53:38.198Z,27.13
2018-10-11T05:56:12.622Z,27.70
2018-10-11T05:58:47.288Z,28.67
2018-10-11T06:01:21.850Z,28.23
2018-10-11T06:03:57.163Z,28.23
2018-10-11T06:06:31.301Z,28.80
2018-10-11T06:09:07.428Z,26.77
2018-10-11T06:11:42.201Z,28.43
2018-10-11T06:14:16.193Z,29.77
2018-10-11T06:16:50.408Z,28.00
2018-10-11T06:19:24.612Z,26.33
2018-10-11T06:21:59.044Z,27.37
2018-10-11T06:24:33.155Z,26.83
2018-10-11T06:27:07.544Z,29.83
2018-10-11T06:29:41.861Z,27.20
2018-10-11T06:32:16.305Z,26.73
2018-10-11T06:34:50.870Z,27.50
2018-10-11T06:37:25.560Z,27.77
2018-10-11T06:40:00.100Z,27.03
2018-10-11T06:42:35.184Z,26.63
2018-10-11T06:45:11.561Z,25.73
2018-10-11T06:47:50.114Z,26.13
2018-10-11T06:50:24.543Z,25.43
2018-10-11T06:52:58.938Z,24.37
2018-10-11T06:55:33.541Z,24.07
2018-10-11T06:58:07.521Z,22.80
2018-10-11T07:00:41.726Z,23.80
2018-10-11T07:05:56.529Z,21.87
2018-10-11T07:08:31.149Z,22.17
2018-10-11T07:11:05.229Z,22.50
2018-10-11T07:13:39.943Z,20.63
2018-10-11T07:16:14.564Z,20.73
2018-10-11T07:18:49.236Z,20.57
2018-10-11T07:21:23.638Z,19.43
2018-10-11T07:23:57.670Z,20.17
2018-10-11T07:26:31.815Z,19.33
2018-10-11T07:29:06.860Z,19.33
2018-10-11T07:31:41.131Z,18.73
2018-10-11T07:34:15.760Z,19.25
2018-10-11T07:36:50.609Z,18.97
2018-10-11T07:39:24.922Z,18.83
2018-10-11T07:41:59.328Z,18.45
2018-10-11T07:44:33.312Z,18.48
2018-10-11T07:47:07.201Z,17.17
2018-10-11T07:49:41.553Z,18.05
2018-10-11T07:52:15.680Z,17.50
2018-10-11T07:54:49.812Z,17.50
2018-10-11T07:57:24.550Z,17.50
2018-10-11T07:59:58.955Z,17.27
2018-10-11T08:02:33.289Z,17.87
2018-10-11T08:05:08.165Z,18.07
2018-10-11T08:07:42.323Z,18.42
2018-10-11T08:10:16.436Z,19.42
2018-10-11T08:12:50.875Z,17.90
2018-10-11T08:15:25.482Z,17.87
2018-10-11T08:18:00.044Z,16.80
2018-10-11T08:20:33.860Z,16.93
2018-10-11T08:23:07.771Z,17.48
2018-10-11T08:25:42.574Z,17.62
2018-10-11T08:28:16.274Z,16.55
2018-10-11T08:30:50.892Z,16.02
2018-10-11T08:33:25.511Z,16.17
2018-10-11T08:35:59.631Z,16.62
2018-10-11T08:38:34.521Z,16.00
2018-10-11T08:41:08.522Z,16.48
2018-10-11T08:43:42.605Z,16.12
2018-10-11T08:46:16.855Z,16.32
2018-10-11T08:48:51.016Z,15.90
2018-10-11T08:51:25.327Z,16.40
2018-10-11T08:54:04.824Z,15.65
2018-10-11T08:56:39.190Z,16.35
2018-10-11T08:59:13.674Z,15.30
2018-10-11T09:01:47.631Z,15.65
2018-10-11T09:04:21.575Z,14.95
2018-10-11T09:06:55.666Z,15.78
2018-10-11T09:09:29.980Z,15.53
2018-10-11T09:12:04.358Z,15.20
2018-10-11T09:14:38.558Z,15.78
2018-10-11T09:17:12.847Z,15.55
2018-10-11T09:19:48.663Z,17.30
2018-10-11T09:22:22.775Z,15.75
2018-10-11T09:24:57.712Z,15.43
2018-10-11T09:27:33.021Z,15.20
2018-10-11T09:30:07.029Z,15.30
2018-10-11T09:32:41.255Z,15.68
2018-10-11T09:35:15.759Z,15.30
2018-10-11T09:37:49.705Z,15.15
2018-10-11T09:40:23.779Z,14.93
2018-10-11T09:42:57.893Z,15.65
2018-10-11T09:45:32.350Z,15.40
2018-10-11T09:48:06.288Z,14.87
2018-10-11T09:50:40.571Z,15.50
2018-10-11T09:53:15.464Z,16.15
2018-10-11T09:55:49.518Z,15.30
2018-10-11T09:58:23.830Z,14.90
2018-10-11T10:01:04.070Z,13.85
2018-10-11T10:03:38.641Z,15.05
2018-10-11T10:06:12.441Z,15.90
2018-10-11T10:08:46.647Z,15.60
2018-10-11T10:11:20.960Z,16.02
2018-10-11T10:13:55.618Z,15.30
2018-10-11T10:16:29.730Z,14.87
2018-10-11T10:19:03.689Z,14.73
2018-10-11T10:21:38.082Z,14.87
2018-10-11T10:24:12.590Z,14.45
2018-10-11T10:26:47.335Z,14.83
2018-10-11T10:29:21.854Z,15.05
2018-10-11T10:31:56.140Z,14.20
2018-10-11T10:34:30.320Z,14.65
2018-10-11T10:37:04.599Z,14.78
2018-10-11T10:39:38.840Z,14.78
2018-10-11T10:42:12.909Z,14.05
2018-10-11T10:44:46.878Z,14.90
2018-10-11T10:47:21.493Z,14.63
2018-10-11T10:49:55.816Z,15.00
2018-10-11T10:52:30.244Z,14.83
2018-10-11T10:55:04.573Z,13.98
2018-10-11T10:57:38.854Z,14.55
2018-10-11T11:00:13.094Z,13.75
2018-10-11T11:02:47.329Z,14.65
2018-10-11T11:05:21.319Z,13.98
2018-10-11T11:07:55.455Z,13.50
2018-10-11T11:10:29.869Z,13.80
2018-10-11T11:13:04.113Z,13.70
2018-10-11T11:15:38.286Z,13.55
2018-10-11T11:18:12.807Z,13.58
2018-10-11T11:20:47.124Z,14.00
2018-10-11T11:23:21.343Z,13.90
2018-10-11T11:25:55.852Z,13.65
2018-10-11T11:28:31.358Z,13.25
2018-10-11T11:31:06.153Z,13.53
2018-10-11T11:33:40.367Z,12.82
2018-10-11T11:36:14.391Z,13.38
2018-10-11T11:38:48.579Z,13.18
2018-10-11T11:41:23.391Z,12.53
2018-10-11T11:43:58.020Z,12.90
2018-10-11T11:46:32.452Z,12.73
2018-10-11T11:49:06.800Z,12.20
2018-10-11T11:51:41.292Z,12.55
2018-10-11T11:54:18.080Z,12.78
2018-10-11T11:56:52.950Z,11.93
2018-10-11T11:59:27.140Z,11.90
2018-10-11T12:02:01.469Z,12.23
2018-10-11T12:04:35.438Z,11.75
2018-10-11T12:07:10.091Z,12.13
2018-10-11T12:09:44.565Z,10.35
2018-10-11T12:12:57.221Z,11.55
2018-10-11T12:15:32.012Z,12.58
2018-10-11T12:18:06.981Z,10.85
2018-10-11T12:20:41.970Z,11.38
2018-10-11T12:23:16.070Z,11.43
2018-10-11T12:25:50.638Z,11.22
2018-10-11T12:28:24.883Z,10.55
2018-10-11T12:30:58.983Z,10.80
2018-10-11T12:33:33.156Z,10.85
2018-10-11T12:36:07.244Z,10.85
2018-10-11T12:38:41.790Z,10.30
2018-10-11T12:41:15.765Z,10.50
2018-10-11T12:43:50.436Z,10.63
2018-10-11T12:46:24.569Z,11.28
2018-10-11T12:48:58.902Z,9.95
2018-10-11T12:51:33.078Z,10.45
2018-10-11T12:54:07.466Z,11.15
2018-10-11T12:56:41.795Z,10.90
2018-10-11T12:59:15.924Z,11.03
2018-10-11T13:01:49.934Z,11.65
2018-10-11T13:04:23.971Z,11.40
2018-10-11T13:06:57.964Z,10.72
2018-10-11T13:09:32.736Z,10.85
2018-10-11T13:12:06.820Z,10.80
2018-10-11T13:14:41.104Z,10.70
2018-10-11T13:17:16.011Z,10.70
2018-10-11T13:19:50.185Z,10.60
2018-10-11T13:22:24.377Z,10.50
2018-10-11T13:24:58.590Z,10.98
2018-10-11T13:27:32.760Z,10.40
2018-10-11T13:30:07.058Z,10.03
2018-10-11T13:32:41.531Z,10.20
2018-10-11T13:35:15.465Z,10.25
2018-10-11T13:37:49.628Z,11.50
2018-10-11T13:40:25.880Z,10.85
2018-10-11T13:43:00.494Z,10.18
2018-10-11T13:45:35.260Z,10.48
2018-10-11T13:48:09.724Z,9.10
2018-10-11T13:50:43.816Z,9.63
2018-10-11T13:53:20.392Z,9.48
2018-10-11T13:55:56.669Z,9.08
2018-10-11T13:58:26.810Z,9.50
2018-10-11T14:01:00.853Z,9.28
2018-10-11T14:03:35.828Z,9.50
2018-10-11T14:06:09.974Z,10.00
2018-10-11T14:08:43.990Z,9.18
2018-10-11T14:11:19.210Z,9.85
2018-10-11T14:13:53.237Z,9.38
2018-10-11T14:16:28.120Z,9.38
2018-10-11T14:19:02.039Z,9.70
2018-10-11T14:21:36.277Z,9.28
2018-10-11T14:24:10.754Z,9.15
2018-10-11T14:26:45.150Z,9.60
2018-10-11T14:29:19.140Z,9.60
2018-10-11T14:31:53.223Z,8.98
2018-10-11T14:34:27.646Z,9.48
2018-10-11T14:37:01.910Z,8.93
2018-10-11T14:39:36.512Z,8.98
2018-10-11T14:42:11.085Z,9.50
2018-10-11T14:44:45.747Z,9.38
2018-10-11T14:47:20.920Z,8.90
2018-10-11T14:49:55.144Z,9.30
2018-10-11T14:52:29.542Z,9.05
2018-10-11T14:55:03.499Z,9.15
2018-10-11T14:57:38.383Z,9.23
2018-10-11T15:00:12.828Z,8.88
2018-10-11T15:02:46.883Z,8.50
2018-10-11T15:05:21.744Z,8.85
2018-10-11T15:07:56.155Z,8.80
2018-10-11T15:10:30.386Z,9.10
2018-10-11T15:13:04.758Z,9.03
2018-10-11T15:15:39.179Z,9.15
2018-10-11T15:18:14.338Z,9.55
2018-10-11T15:20:48.620Z,9.50
2018-10-11T15:23:22.652Z,9.28
2018-10-11T15:25:56.868Z,9.03
2018-10-11T15:28:31.418Z,9.60
2018-10-11T15:31:05.755Z,9.78
2018-10-11T15:33:40.723Z,9.50
2018-10-11T15:36:14.913Z,9.30
2018-10-11T15:38:49.301Z,9.23
2018-10-11T15:41:23.944Z,9.18
2018-10-11T15:43:59.063Z,9.50
2018-10-11T15:46:34.251Z,9.15
2018-10-11T15:49:08.835Z,9.23
2018-10-11T15:51:43.761Z,9.40
2018-10-11T15:54:17.678Z,9.35
2018-10-11T15:56:52.063Z,8.75
2018-10-11T15:59:25.922Z,8.68
2018-10-11T16:02:00.446Z,8.80
2018-10-11T16:04:34.545Z,9.03
2018-10-11T16:07:08.633Z,9.65
2018-10-11T16:09:42.662Z,9.05
2018-10-11T16:12:17.724Z,10.10
2018-10-11T16:14:52.547Z,9.63
2018-10-11T16:17:26.946Z,9.50
2018-10-11T16:20:01.038Z,9.95
2018-10-11T16:22:35.553Z,8.90
2018-10-11T16:25:10.093Z,10.18
2018-10-11T16:27:44.748Z,9.90
2018-10-11T16:30:19.543Z,9.10
2018-10-11T16:32:54.020Z,9.68
2018-10-11T16:35:29.328Z,9.70
2018-10-11T16:38:03.683Z,9.95
2018-10-11T16:40:38.164Z,9.88
2018-10-11T16:43:13.284Z,9.93
2018-10-11T16:45:47.546Z,9.63
2018-10-11T16:48:21.928Z,9.20
2018-10-11T16:50:56.336Z,9.70
2018-10-11T16:53:30.674Z,9.75
2018-10-11T16:56:05.543Z,10.00
2018-10-11T16:58:40.015Z,9.53
2018-10-11T17:01:14.504Z,10.32
2018-10-11T17:03:48.612Z,9.50
2018-10-11T17:06:23.159Z,10.10
2018-10-11T17:08:58.085Z,10.00
2018-10-11T17:11:32.441Z,10.10
2018-10-11T17:14:07.025Z,10.43
2018-10-11T17:16:41.343Z,10.28
2018-10-11T17:19:16.067Z,10.70
2018-10-11T17:21:51.525Z,10.30
2018-10-11T17:24:26.171Z,10.45
2018-10-11T17:27:01.794Z,9.93
2018-10-11T17:29:36.497Z,9.98
2018-10-11T17:32:10.864Z,10.20
2018-10-11T17:34:46.290Z,10.15
2018-10-11T17:37:20.889Z,10.10
2018-10-11T17:39:55.994Z,10.70
2018-10-11T17:42:30.409Z,9.98
2018-10-11T17:45:05.291Z,11.33
2018-10-11T17:47:40.170Z,10.72
2018-10-11T17:50:14.649Z,14.55
2018-10-11T17:52:48.959Z,30.60
2018-10-11T17:55:23.691Z,40.30
2018-10-11T17:57:58.429Z,40.48
2018-10-11T18:00:32.762Z,20.85
2018-10-11T18:03:07.485Z,15.05
2018-10-11T18:05:42.225Z,14.90
2018-10-11T18:08:16.693Z,15.32
2018-10-11T18:10:51.016Z,14.25
2018-10-11T18:13:26.109Z,13.75
2018-10-11T18:16:00.313Z,12.93
2018-10-11T18:18:34.644Z,12.65
2018-10-11T18:21:08.885Z,11.73
2018-10-11T18:23:43.166Z,11.68
2018-10-11T18:26:18.279Z,11.12
2018-10-11T18:28:53.360Z,11.38
2018-10-11T18:31:27.453Z,11.53
2018-10-11T18:34:02.788Z,11.22
2018-10-11T18:36:44.719Z,10.58
2018-10-11T18:39:19.892Z,11.60
2018-10-11T18:41:54.760Z,11.88
2018-10-11T18:44:29.017Z,11.60
2018-10-11T18:47:03.379Z,11.70
2018-10-11T18:49:37.821Z,12.65
2018-10-11T18:52:12.819Z,12.18
2018-10-11T18:54:47.359Z,10.85
2018-10-11T18:57:22.363Z,11.33
2018-10-11T18:59:57.185Z,11.00
2018-10-11T19:02:31.377Z,11.40
2018-10-11T19:05:06.425Z,11.05
2018-10-11T19:07:41.050Z,11.70
2018-10-11T19:10:15.775Z,11.97
2018-10-11T19:12:50.936Z,12.07
2018-10-11T19:15:26.088Z,11.22
2018-10-11T19:18:00.565Z,11.80
2018-10-11T19:20:34.876Z,11.08
2018-10-11T19:23:10.236Z,11.35
2018-10-11T19:25:45.236Z,10.95
2018-10-11T19:28:20.435Z,11.22
2018-10-11T19:30:54.893Z,11.00
2018-10-11T19:33:29.498Z,11.05
2018-10-11T19:36:04.314Z,9.80
2018-10-11T19:38:39.181Z,11.05
2018-10-11T19:41:13.924Z,10.28
2018-10-11T19:43:48.900Z,10.53
2018-10-11T19:46:23.394Z,10.28
2018-10-11T19:48:58.058Z,10.95
2018-10-11T19:51:32.610Z,10.98
2018-10-11T19:54:07.203Z,10.40
2018-10-11T19:56:42.366Z,10.75
2018-10-11T19:59:17.239Z,10.40
2018-10-11T20:01:52.105Z,10.35
2018-10-11T20:04:26.996Z,10.40
2018-10-11T20:07:01.380Z,10.38
2018-10-11T20:09:36.609Z,10.20
2018-10-11T20:12:11.426Z,10.03
2018-10-11T20:14:45.852Z,10.30
2018-10-11T20:17:20.034Z,10.78
2018-10-11T20:19:54.448Z,10.08
2018-10-11T20:22:29.048Z,10.95
2018-10-11T20:25:03.644Z,10.50
2018-10-11T20:27:38.328Z,11.63
2018-10-11T20:30:13.348Z,10.65
2018-10-11T20:32:47.495Z,10.10
2018-10-11T20:35:22.484Z,10.60
2018-10-11T20:37:56.999Z,10.23
2018-10-11T20:40:31.613Z,11.10
2018-10-11T20:43:05.853Z,11.08
2018-10-11T20:45:40.434Z,11.95
2018-10-11T20:48:15.828Z,11.73
2018-10-11T20:50:50.012Z,11.22
2018-10-11T20:53:25.326Z,10.80
2018-10-11T20:56:00.172Z,11.03
2018-10-11T20:58:35.069Z,11.70
2018-10-11T21:01:09.078Z,10.80
2018-10-11T21:03:43.360Z,10.98
2018-10-11T21:06:18.045Z,11.50
2018-10-11T21:08:52.201Z,10.65
2018-10-11T21:11:26.170Z,11.08
2018-10-11T21:14:00.363Z,10.70
2018-10-11T21:16:34.706Z,10.32
2018-10-11T21:19:09.043Z,10.80
2018-10-11T21:21:43.516Z,11.10
2018-10-11T21:24:17.783Z,10.53
2018-10-11T21:26:52.299Z,10.78
2018-10-11T21:29:26.466Z,10.78
2018-10-11T21:32:00.500Z,11.15
2018-10-11T21:34:35.715Z,10.95
2018-10-11T21:37:09.660Z,10.38
2018-10-11T21:39:44.719Z,10.78
2018-10-11T21:42:22.069Z,10.50
2018-10-11T21:44:56.013Z,10.63
2018-10-11T21:47:30.614Z,11.88
2018-10-11T21:50:05.768Z,10.68
2018-10-11T21:52:40.179Z,10.68
2018-10-11T21:55:14.185Z,10.90
2018-10-11T21:57:48.625Z,10.98
2018-10-11T22:00:28.430Z,11.30
2018-10-11T22:03:03.086Z,10.82
2018-10-11T22:05:37.119Z,10.15
2018-10-11T22:08:10.915Z,11.08
2018-10-11T22:10:44.983Z,10.30
2018-10-11T22:13:19.422Z,11.10
2018-10-11T22:15:54.803Z,10.45
2018-10-11T22:18:29.282Z,10.75
2018-10-11T22:21:03.663Z,11.00
2018-10-11T22:23:38.558Z,11.83
2018-10-11T22:26:12.973Z,10.70
2018-10-11T22:28:47.208Z,10.68
2018-10-11T22:31:21.444Z,10.13
2018-10-11T22:33:56.645Z,11.18
2018-10-11T22:36:31.274Z,9.80
2018-10-11T22:39:07.724Z,9.90
2018-10-11T22:41:42.546Z,10.78
2018-10-11T22:44:16.674Z,10.35
2018-10-11T22:46:50.803Z,10.78
2018-10-11T22:49:25.104Z,10.50
2018-10-11T22:51:59.548Z,12.58
2018-10-11T22:54:33.807Z,25.95
2018-10-11T22:57:08.240Z,19.10
2018-10-11T22:59:42.650Z,14.80
2018-10-11T23:02:16.759Z,15.23
2018-10-11T23:04:50.805Z,14.73
2018-10-11T23:07:25.594Z,13.13
2018-10-11T23:10:00.050Z,13.25
2018-10-11T23:12:34.837Z,12.45
2018-10-11T23:15:09.168Z,12.95
2018-10-11T23:17:43.217Z,12.43
2018-10-11T23:20:18.197Z,12.90
2018-10-11T23:22:52.454Z,12.53
2018-10-11T23:25:26.894Z,12.68
2018-10-11T23:28:01.257Z,12.75
2018-10-11T23:30:36.125Z,12.58
2018-10-11T23:33:10.419Z,13.03
2018-10-11T23:35:44.868Z,12.60
2018-10-11T23:38:18.824Z,13.30
2018-10-11T23:40:53.272Z,13.23
2018-10-11T23:43:27.470Z,13.28
2018-10-11T23:46:02.715Z,12.17
2018-10-11T23:48:37.643Z,12.05
2018-10-11T23:51:11.980Z,12.77
2018-10-11T23:53:46.427Z,13.17
2018-10-11T23:56:20.634Z,13.07
2018-10-11T23:58:55.579Z,12.80
